EGPH/EDI METAR and TAF weather

Enter ICAO airport designator
Station Type Date Time Source
EGPH METAR 2018/12/10 23:50 UTC NOAA

EGPH 102350Z 24001KT 9999 BKN041 02/01 Q1025


Station Type Date Time Source
EGPH Decoded METAR 2018/12/10 23:50 UTC NOAA

Edinburgh Airport, United Kingdom (EGPH) 55-57N 003-21W 0M
Dec 10, 2018 - 06:50 PM EST / 2018.12.10 2350 UTC
Wind: from the WSW (240 degrees) at 1 MPH (1 KT):0
Visibility: greater than 7 mile(s):0
Sky conditions: mostly cloudy
Temperature: 35 F (2 C)
Dew Point: 33 F (1 C)
Relative Humidity: 93%
Pressure (altimeter): 30.27 in. Hg (1025 hPa)
ob: EGPH 102350Z 24001KT 9999 BKN041 02/01 Q1025
cycle: 0

Station Type Date Time Source
EGPH TAF 2018/12/10 18:09 UTC NOAA

TAF EGPH 101703Z 1018/1118 VRB03KT 9999 FEW035
TEMPO 1018/1118 7000 PROB30 1106/1118 BKN012


Example: see airport list